Time;durP1;ratioP1;P1;durP2;ratioP2;P2;SDS_P1;SDS_P2;PMS_P1;PMS_P2;Temp;Humidity;BMP_temperature;BMP_pressure;BME280_temperature;BME280_humidity;BME280_pressure;Samples;Min_cycle;Max_cycle;Signal;HPM_P1;HPM_P2
2021/12/22 00:01:22;;;;;;;24.25;21.80;;;-0.10;46.00;;;;;;20574;6824;306625;-86
2021/12/22 00:03:47;;;;;;;22.90;18.87;;;-0.20;46.50;;;;;;20784;6825;117942;-85
2021/12/22 00:06:09;;;;;;;23.20;18.20;;;-0.20;46.70;;;;;;20763;6847;116740;-85
2021/12/22 00:08:35;;;;;;;25.45;22.75;;;-0.50;47.00;;;;;;20592;6826;314238;-88
2021/12/22 00:11:00;;;;;;;25.55;22.92;;;-0.40;47.10;;;;;;20577;6826;277976;-86
2021/12/22 00:13:26;;;;;;;21.50;18.87;;;-0.20;46.70;;;;;;20795;6826;118014;-86
2021/12/22 00:15:51;;;;;;;26.43;23.63;;;-0.20;46.30;;;;;;20636;6826;281169;-86
2021/12/22 00:18:18;;;;;;;20.17;17.70;;;-0.30;47.30;;;;;;20797;6826;117319;-86
2021/12/22 00:20:43;;;;;;;21.23;17.80;;;-0.30;47.30;;;;;;20794;6826;121672;-86
2021/12/22 00:23:09;;;;;;;22.53;18.07;;;-0.50;47.60;;;;;;20770;6826;117414;-86
2021/12/22 00:25:34;;;;;;;23.35;21.05;;;-0.70;48.00;;;;;;20505;6847;312279;-86
2021/12/22 00:28:00;;;;;;;20.37;16.83;;;-0.60;48.70;;;;;;20789;6826;117491;-86
2021/12/22 00:30:26;;;;;;;22.02;19.73;;;-0.50;48.50;;;;;;20506;6847;308626;-88
2021/12/22 00:32:54;;;;;;;22.73;20.42;;;-0.10;48.50;;;;;;20569;6826;336639;-85
2021/12/22 00:35:21;;;;;;;22.17;20.12;;;-0.10;48.50;;;;;;20494;6847;308638;-85
2021/12/22 00:41:11;;;;;;;22.35;20.10;;;0.40;47.90;;;;;;20548;6826;278038;-84
2021/12/22 00:43:37;;;;;;;22.33;20.12;;;0.60;46.70;;;;;;20570;6826;339779;-85
2021/12/22 00:46:02;;;;;;;18.30;15.93;;;0.70;46.10;;;;;;20823;6826;117593;-84
2021/12/22 00:48:28;;;;;;;20.50;18.30;;;0.40;46.00;;;;;;20592;6826;306642;-85
2021/12/22 00:50:54;;;;;;;22.27;20.00;;;0.30;46.60;;;;;;20483;6848;281922;-85
2021/12/22 00:53:19;;;;;;;21.90;19.60;;;0.40;46.10;;;;;;20593;6826;277283;-86
2021/12/22 00:55:46;;;;;;;21.40;19.30;;;0.50;45.20;;;;;;20583;6826;308373;-86
2021/12/22 00:58:11;;;;;;;20.98;18.87;;;0.50;45.20;;;;;;20492;6848;308598;-85
2021/12/22 01:00:37;;;;;;;21.83;19.63;;;0.60;45.00;;;;;;20584;6826;277631;-85
2021/12/22 01:03:02;;;;;;;20.05;17.48;;;0.60;44.60;;;;;;20702;6848;118720;-86
2021/12/22 01:05:28;;;;;;;21.45;19.27;;;0.30;44.80;;;;;;20567;6826;307167;-88
2021/12/22 01:07:53;;;;;;;20.67;15.70;;;0.10;45.30;;;;;;20713;6848;121092;-86
2021/12/22 01:10:19;;;;;;;17.77;15.88;;;-0.10;45.50;;;;;;20795;6826;117063;-85
2021/12/22 01:12:45;;;;;;;18.05;14.73;;;-0.70;46.00;;;;;;20764;6824;117296;-85
2021/12/22 01:15:12;;;;;;;16.37;14.63;;;-0.70;46.50;;;;;;20728;6825;117357;-85
2021/12/22 01:17:41;;;;;;;17.27;14.77;;;-0.90;46.90;;;;;;20688;6847;117801;-85
2021/12/22 01:20:08;;;;;;;21.40;19.30;;;-1.10;47.20;;;;;;20560;6826;324354;-85
2021/12/22 01:22:47;;;;;;;22.63;20.47;;;-1.10;47.20;;;;;;20554;6826;277703;-85
2021/12/22 01:25:02;;;;;;;18.03;16.07;;;-0.80;46.50;;;;;;20767;6826;117407;-89
2021/12/22 01:27:27;;;;;;;24.70;21.63;;;-0.90;46.20;;;;;;20573;6826;307513;-86
2021/12/22 01:29:51;;;;;;;24.40;21.90;;;-0.90;46.10;;;;;;20562;6826;311497;-86
2021/12/22 01:32:17;;;;;;;20.67;18.02;;;-0.60;46.10;;;;;;20717;6847;117660;-85
2021/12/22 01:34:42;;;;;;;19.45;16.33;;;-0.70;46.00;;;;;;20783;6826;117289;-85
2021/12/22 01:37:08;;;;;;;19.73;15.87;;;-1.00;46.40;;;;;;20702;6847;117884;-85
2021/12/22 01:39:33;;;;;;;20.63;17.27;;;-1.20;46.90;;;;;;20794;6826;118831;-88
2021/12/22 01:41:59;;;;;;;24.17;21.57;;;-1.30;47.30;;;;;;20518;6847;277664;-86
2021/12/22 01:44:25;;;;;;;22.03;18.43;;;-1.30;47.30;;;;;;20822;6826;117324;-86
2021/12/22 01:49:40;;;;;;;25.05;22.45;;;-1.30;47.10;;;;;;20576;6826;343606;-85
2021/12/22 01:52:06;;;;;;;24.83;22.33;;;-1.30;47.10;;;;;;20562;6826;337069;-86
2021/12/22 01:54:35;;;;;;;21.48;18.10;;;-1.00;46.60;;;;;;20778;6826;119343;-86
2021/12/22 01:57:06;;;;;;;25.45;22.77;;;-1.00;46.30;;;;;;20479;6847;338191;-85
2021/12/22 01:59:26;;;;;;;25.65;22.95;;;-1.00;46.20;;;;;;20487;6847;296600;-85
2021/12/22 02:01:51;;;;;;;23.60;18.63;;;-0.80;45.90;;;;;;20788;6826;117220;-84
2021/12/22 02:04:17;;;;;;;22.07;17.47;;;-0.90;45.70;;;;;;20870;6826;67598;-85
2021/12/22 02:06:42;;;;;;;20.17;16.97;;;-1.20;46.10;;;;;;20732;6847;117766;-85
2021/12/22 02:09:15;;;;;;;20.75;16.52;;;-1.40;46.60;;;;;;20764;6826;117374;-85
2021/12/22 02:11:37;;;;;;;24.23;21.62;;;-1.60;47.10;;;;;;20551;6826;309553;-86
2021/12/22 02:14:05;;;;;;;19.73;17.73;;;-1.50;47.60;;;;;;20709;6848;118215;-84
2021/12/22 02:16:31;;;;;;;23.90;21.47;;;-1.50;47.20;;;;;;20529;6826;278066;-85
2021/12/22 02:18:54;;;;;;;25.00;22.40;;;-1.40;47.00;;;;;;20475;6848;279075;-85
2021/12/22 02:21:20;;;;;;;24.53;21.93;;;-1.10;47.30;;;;;;20568;6826;301792;-85
2021/12/22 02:23:44;;;;;;;19.37;16.57;;;-0.80;46.90;;;;;;20709;6846;117369;-85
2021/12/22 02:26:19;;;;;;;19.60;16.30;;;-1.10;47.00;;;;;;20779;6825;117578;-87
2021/12/22 02:28:44;;;;;;;24.55;22.05;;;-1.20;46.80;;;;;;20553;6826;310222;-85
2021/12/22 02:31:06;;;;;;;20.40;17.55;;;-1.20;46.50;;;;;;20687;6847;117871;-85
2021/12/22 02:33:36;;;;;;;22.27;16.63;;;-1.20;46.50;;;;;;20796;6826;117513;-85
2021/12/22 02:38:28;;;;;;;23.60;21.20;;;-1.40;47.10;;;;;;20587;6826;292734;-86
2021/12/22 02:40:54;;;;;;;20.67;18.33;;;-1.00;47.20;;;;;;20778;6847;119172;-86
2021/12/22 02:43:23;;;;;;;22.90;16.73;;;-1.30;46.90;;;;;;20624;6826;118694;-91
2021/12/22 02:45:46;;;;;;;19.50;16.07;;;-1.30;46.90;;;;;;20783;6826;117371;-89
2021/12/22 02:48:11;;;;;;;20.48;15.98;;;-1.50;47.30;;;;;;20713;6847;116963;-85
2021/12/22 02:50:37;;;;;;;19.03;15.07;;;-1.70;47.70;;;;;;20789;6826;117387;-85
2021/12/22 02:55:41;;;;;;;18.73;15.53;;;-2.00;48.20;;;;;;20778;6826;117435;-85
2021/12/22 02:57:58;;;;;;;20.80;18.08;;;-2.10;48.30;;;;;;20641;6826;305267;-85
2021/12/22 03:05:21;;;;;;;21.33;16.93;;;-1.80;47.80;;;;;;20750;6834;123415;-88
2021/12/22 03:07:47;;;;;;;20.47;16.13;;;-1.90;48.00;;;;;;20758;6834;117836;-84
2021/12/22 03:10:14;;;;;;;23.50;21.00;;;-2.00;48.20;;;;;;20543;6834;307363;-86
2021/12/22 03:12:39;;;;;;;24.40;21.80;;;-1.50;47.80;;;;;;20556;6834;336075;-85
2021/12/22 03:15:04;;;;;;;19.87;17.43;;;-1.60;47.60;;;;;;20781;6834;117568;-85
2021/12/22 03:17:29;;;;;;;18.73;16.73;;;-1.50;47.30;;;;;;20751;6834;118467;-86
2021/12/22 03:19:55;;;;;;;22.73;20.33;;;-1.70;47.40;;;;;;20567;6834;276485;-85
2021/12/22 03:22:21;;;;;;;19.45;16.48;;;-1.70;47.50;;;;;;20795;6834;116507;-86
2021/12/22 03:24:48;;;;;;;17.75;15.73;;;-1.70;47.30;;;;;;20753;6834;117428;-86
2021/12/22 03:27:12;;;;;;;19.43;15.23;;;-1.90;47.60;;;;;;20735;6834;120625;-85
2021/12/22 03:29:38;;;;;;;18.00;14.30;;;-2.10;48.30;;;;;;20765;6834;118514;-86
2021/12/22 03:32:04;;;;;;;17.77;14.40;;;-2.10;48.30;;;;;;20724;6834;117537;-86
2021/12/22 03:34:29;;;;;;;19.40;14.67;;;-2.20;48.50;;;;;;20699;6849;117594;-85
2021/12/22 03:36:55;;;;;;;16.83;14.57;;;-2.40;48.80;;;;;;20740;6836;117307;-85
2021/12/22 03:39:21;;;;;;;22.03;19.73;;;-2.40;48.80;;;;;;20488;6851;311599;-86
2021/12/22 03:41:47;;;;;;;23.42;21.08;;;-1.80;47.80;;;;;;20539;6836;279430;-86
2021/12/22 03:44:13;;;;;;;24.30;21.50;;;-1.80;47.80;;;;;;20489;6851;283080;-85
2021/12/22 03:46:38;;;;;;;23.90;21.50;;;-1.40;47.30;;;;;;20536;6836;337128;-85
2021/12/22 03:49:04;;;;;;;20.23;16.37;;;-1.20;46.60;;;;;;20688;6851;147062;-85
2021/12/22 03:51:30;;;;;;;19.23;16.37;;;-1.50;46.90;;;;;;20749;6836;118375;-85
2021/12/22 03:53:56;;;;;;;21.67;19.47;;;-1.50;46.90;;;;;;20495;6851;306502;-86
2021/12/22 03:56:21;;;;;;;19.73;15.87;;;-1.50;47.00;;;;;;20753;6836;117769;-84
2021/12/22 03:58:47;;;;;;;18.07;15.10;;;-1.50;46.90;;;;;;20764;6852;118845;-85
2021/12/22 04:01:13;;;;;;;20.88;15.20;;;-1.70;47.20;;;;;;20736;6836;118113;-85
2021/12/22 04:03:40;;;;;;;21.55;19.37;;;-1.90;47.50;;;;;;20496;6852;326567;-89
2021/12/22 04:06:05;;;;;;;17.73;15.27;;;-1.80;47.50;;;;;;20757;6836;116271;-83
2021/12/22 04:08:30;;;;;;;18.47;14.80;;;-1.80;47.50;;;;;;20708;6852;117651;-85
2021/12/22 04:10:56;;;;;;;19.90;15.30;;;-1.90;47.60;;;;;;20743;6836;123149;-85
2021/12/22 04:13:21;;;;;;;22.03;19.83;;;-2.10;47.80;;;;;;20495;6852;280579;-85
2021/12/22 04:15:47;;;;;;;22.73;20.53;;;-2.00;47.80;;;;;;20537;6837;312185;-85
2021/12/22 04:18:13;;;;;;;23.52;21.23;;;-1.30;46.20;;;;;;20511;6852;313140;-88
2021/12/22 04:20:38;;;;;;;19.23;17.10;;;-1.30;46.20;;;;;;20757;6837;117841;-85
2021/12/22 04:23:04;;;;;;;16.87;15.07;;;-1.40;45.90;;;;;;20691;6852;118378;-83
2021/12/22 04:25:30;;;;;;;22.77;20.50;;;-1.70;46.20;;;;;;20542;6837;278106;-86
2021/12/22 04:27:56;;;;;;;18.13;16.23;;;-1.60;47.30;;;;;;20705;6852;117578;-88
2021/12/22 04:30:21;;;;;;;21.20;19.10;;;-1.60;47.20;;;;;;20549;6837;277602;-89
2021/12/22 04:32:46;;;;;;;18.70;16.53;;;-1.50;47.40;;;;;;20761;6852;117673;-89
2021/12/22 04:35:12;;;;;;;19.00;16.30;;;-1.50;47.30;;;;;;20788;6837;118807;-88
2021/12/22 04:37:37;;;;;;;18.30;15.00;;;-1.70;47.40;;;;;;20759;6852;117107;-88
2021/12/22 04:40:03;;;;;;;17.27;15.07;;;-1.90;47.60;;;;;;20734;6851;117776;-90
2021/12/22 04:42:29;;;;;;;21.83;19.53;;;-2.00;48.00;;;;;;20562;6837;307702;-89
2021/12/22 04:44:57;;;;;;;20.47;15.67;;;-1.90;47.70;;;;;;20697;6852;127800;-89
2021/12/22 04:47:20;;;;;;;21.40;19.40;;;-1.90;47.30;;;;;;20541;6835;296879;-89
2021/12/22 04:49:46;;;;;;;19.02;16.67;;;-1.80;46.60;;;;;;20718;6851;117943;-90
2021/12/22 04:52:16;;;;;;;17.90;15.23;;;-1.80;46.60;;;;;;20765;6836;117473;-89
2021/12/22 04:54:49;;;;;;;18.05;15.35;;;-2.00;46.80;;;;;;20699;6851;117430;-90
2021/12/22 04:57:03;;;;;;;18.37;15.20;;;-2.10;47.30;;;;;;20713;6836;119330;-88
2021/12/22 04:59:29;;;;;;;22.00;19.90;;;-2.10;47.70;;;;;;20502;6851;279915;-88
2021/12/22 05:01:56;;;;;;;18.40;15.10;;;-2.10;47.70;;;;;;20755;6836;117791;-89
2021/12/22 05:04:21;;;;;;;17.27;14.75;;;-2.20;47.60;;;;;;20709;6851;118024;-88
2021/12/22 05:06:47;;;;;;;20.23;15.80;;;-2.20;47.60;;;;;;20906;6631;68146;-88
2021/12/22 05:09:23;;;;;;;18.97;14.60;;;-2.30;47.70;;;;;;20905;6766;67837;-88
2021/12/22 05:11:58;;;;;;;20.73;18.63;;;-2.40;48.00;;;;;;20614;6777;280198;-88
2021/12/22 05:14:33;;;;;;;21.03;18.93;;;-2.20;48.30;;;;;;20652;6756;307204;-88
2021/12/22 05:17:17;;;;;;;18.43;15.33;;;-1.80;47.00;;;;;;20874;6764;91222;-88
2021/12/22 05:19:50;;;;;;;16.30;13.73;;;-1.80;46.60;;;;;;20947;6747;67081;-95
2021/12/22 05:22:20;;;;;;;15.93;13.97;;;-2.00;46.80;;;;;;20914;6747;68106;-90
2021/12/22 05:24:59;;;;;;;16.53;13.60;;;-2.20;47.10;;;;;;20756;6762;68519;-89
2021/12/22 05:27:31;;;;;;;15.67;13.87;;;-2.40;47.50;;;;;;20895;6759;67594;-89
2021/12/22 06:26:57;;;;;;;20.70;18.40;;;-1.00;42.60;;;;;;21645;6562;234802;-87
2021/12/22 06:29:23;;;;;;;21.10;15.35;;;-1.20;43.00;;;;;;21563;6589;66827;-85
2021/12/22 06:31:48;;;;;;;15.38;13.57;;;-1.60;43.70;;;;;;21553;6590;77420;-86
2021/12/22 06:34:14;;;;;;;15.63;13.95;;;-1.90;44.40;;;;;;21628;6574;71688;-88
2021/12/22 06:36:39;;;;;;;13.90;12.43;;;-2.10;45.70;;;;;;21389;6574;68384;-86
2021/12/22 06:39:05;;;;;;;17.37;15.63;;;-2.30;45.40;;;;;;21168;6643;301830;-89
2021/12/22 06:41:50;;;;;;;18.45;16.67;;;-2.30;45.10;;;;;;21172;6643;272792;-89
2021/12/22 06:44:26;;;;;;;18.90;17.07;;;-2.00;44.20;;;;;;20928;6511;306338;-86
2021/12/22 06:47:12;;;;;;;;;;;;;;;;;;;;;
2021/12/22 06:49:38;;;;;;;13.73;12.33;;;-2.20;44.10;;;;;;20923;6745;117453;-87
2021/12/22 06:52:17;;;;;;;18.07;16.27;;;-2.20;44.10;;;;;;20703;6747;308939;-86
2021/12/22 06:54:55;;;;;;;18.20;16.50;;;-2.20;44.70;;;;;;20694;6756;304931;-94
2021/12/22 06:57:25;;;;;;;16.43;14.47;;;-1.90;44.40;;;;;;20873;6756;118161;-87
2021/12/22 07:00:04;;;;;;;19.37;17.37;;;-2.00;44.20;;;;;;20619;6761;277323;-86
2021/12/22 07:02:38;;;;;;;19.62;17.75;;;-2.00;45.10;;;;;;20651;6761;305399;-86
2021/12/22 07:05:12;;;;;;;16.40;14.60;;;-1.90;44.10;;;;;;20727;6751;117689;-86
2021/12/22 07:07:48;;;;;;;19.53;15.97;;;-2.00;44.00;;;;;;20741;6743;117774;-88
2021/12/22 07:10:26;;;;;;;19.10;15.00;;;-2.20;44.40;;;;;;20827;6743;117131;-87
2021/12/22 07:12:59;;;;;;;22.60;20.17;;;-2.50;44.90;;;;;;20655;6743;306574;-88
2021/12/22 07:15:34;;;;;;;21.90;19.70;;;-2.50;45.00;;;;;;20571;6743;308665;-88
2021/12/22 07:18:10;;;;;;;21.83;19.52;;;-2.20;45.10;;;;;;20679;6740;334963;-86
2021/12/22 07:24:49;;;;;;;;;;;;;;;;;;;;;
2021/12/22 07:29:54;;;;;;;21.33;16.10;;;-2.10;43.70;;;;;;20584;6816;67834;-94
2021/12/22 07:32:16;;;;;;;16.43;14.07;;;-2.20;43.70;;;;;;20764;6739;70104;-94
2021/12/22 07:34:51;;;;;;;18.43;14.30;;;-2.50;44.20;;;;;;20863;6739;68907;-87
2021/12/22 07:37:28;;;;;;;17.07;14.10;;;-2.80;45.30;;;;;;20865;6754;67223;-87
2021/12/22 07:40:03;;;;;;;18.30;14.27;;;-2.90;45.20;;;;;;20831;6762;68382;-87
2021/12/22 07:42:39;;;;;;;20.50;18.50;;;-2.90;45.80;;;;;;20704;6738;276413;-87
2021/12/22 07:45:14;;;;;;;21.58;19.48;;;-2.80;46.40;;;;;;20629;6738;279036;-87
2021/12/22 07:47:50;;;;;;;18.97;16.03;;;-2.30;46.10;;;;;;20883;6747;67522;-87
2021/12/22 07:50:25;;;;;;;17.80;13.77;;;-2.20;45.80;;;;;;20925;6747;67123;-88
2021/12/22 07:53:01;;;;;;;16.43;14.70;;;-2.30;46.00;;;;;;20954;6646;117271;-86
2021/12/22 07:55:37;;;;;;;17.30;14.60;;;-2.40;46.40;;;;;;20852;6713;117702;-86
2021/12/22 07:58:12;;;;;;;16.80;14.00;;;-2.50;46.80;;;;;;20818;6743;121027;-86
2021/12/22 08:00:48;;;;;;;21.13;19.00;;;-2.50;47.30;;;;;;20640;6747;308878;-86
2021/12/22 08:03:23;;;;;;;23.53;21.23;;;-2.20;47.90;;;;;;20581;6761;308482;-89
2021/12/22 08:05:59;;;;;;;24.20;21.80;;;-1.70;47.60;;;;;;20441;6787;313414;-87
2021/12/22 08:08:34;;;;;;;18.60;16.57;;;-1.10;46.90;;;;;;20898;6730;117223;-90
2021/12/22 08:11:10;;;;;;;19.20;15.90;;;-1.00;46.50;;;;;;20847;6730;117314;-86
2021/12/22 08:13:46;;;;;;;16.97;14.37;;;-1.10;46.80;;;;;;20945;6730;116393;-85
2021/12/22 08:16:21;;;;;;;14.80;13.17;;;-1.10;47.30;;;;;;20588;6745;117682;-86
2021/12/22 08:18:57;;;;;;;15.00;12.97;;;-1.20;47.40;;;;;;20772;6762;117767;-85
2021/12/22 08:27:44;;;;;;;55.30;41.97;;;-1.20;47.90;;;;;;19369;6740;306769;-96
2021/12/22 08:30:39;;;;;;;16.87;15.23;;;-0.90;46.80;;;;;;20826;6755;68266;-96
2021/12/22 08:33:21;;;;;;;19.20;17.20;;;-0.80;46.40;;;;;;20713;6740;276414;-86
2021/12/22 08:38:58;;;;;;;20.13;18.03;;;-0.40;44.90;;;;;;20611;6760;312353;-87
2021/12/22 08:41:31;;;;;;;104.70;69.25;;;-0.20;44.40;;;;;;20567;6775;316176;-87
2021/12/22 08:44:07;;;;;;;23.27;18.07;;;0.20;44.20;;;;;;20838;6760;67661;-88
2021/12/22 08:46:42;;;;;;;19.67;17.63;;;0.20;44.20;;;;;;20566;6662;275254;-88
2021/12/22 08:49:18;;;;;;;16.67;14.77;;;0.30;43.90;;;;;;20815;6760;120359;-89
2021/12/22 08:51:54;;;;;;;16.57;14.63;;;0.30;43.90;;;;;;20409;6834;113249;-89
2021/12/22 08:54:29;;;;;;;15.27;13.60;;;0.10;44.40;;;;;;20779;6817;68139;-88
2021/12/22 08:57:05;;;;;;;16.37;14.30;;;0.00;45.10;;;;;;20710;6822;67255;-88
2021/12/22 08:59:41;;;;;;;14.87;13.07;;;0.00;46.10;;;;;;20702;6825;117154;-89
2021/12/22 09:02:17;;;;;;;20.20;18.20;;;0.00;46.10;;;;;;20582;6810;308043;-88
2021/12/22 09:04:52;;;;;;;20.73;18.60;;;0.20;46.00;;;;;;20233;6830;338191;-88
2021/12/22 09:07:28;;;;;;;17.80;15.40;;;0.70;45.50;;;;;;20680;6819;121698;-88
2021/12/22 09:10:04;;;;;;;20.47;18.47;;;0.70;45.20;;;;;;20597;6767;277288;-89
2021/12/22 09:12:39;;;;;;;21.80;19.60;;;0.80;45.40;;;;;;20647;6745;306848;-90
2021/12/22 09:15:17;;;;;;;23.83;21.33;;;1.10;45.00;;;;;;20757;6786;118760;-89
2021/12/22 09:17:50;;;;;;;18.90;16.47;;;1.10;44.90;;;;;;20799;6814;117070;-89
2021/12/22 09:20:28;;;;;;;16.50;14.70;;;1.00;45.50;;;;;;20771;6831;116227;-91
2021/12/22 09:23:18;;;;;;;22.33;19.50;;;0.80;45.90;;;;;;19590;7141;290109;-90
2021/12/22 09:25:54;;;;;;;18.33;16.13;;;1.00;45.70;;;;;;19517;7156;69936;-92
2021/12/22 09:28:40;;;;;;;;;;;;;;;;;;;;;
2021/12/22 09:31:05;;;;;;;20.20;16.57;;;1.20;46.10;;;;;;20794;6820;67572;-92
2021/12/22 09:33:41;;;;;;;21.30;15.43;;;1.30;46.10;;;;;;20817;6764;67603;-91
2021/12/22 09:36:17;;;;;;;19.83;15.00;;;1.20;46.40;;;;;;20702;6764;76460;-89
2021/12/22 09:38:56;;;;;;;21.37;19.13;;;1.40;46.60;;;;;;20671;6749;302890;-89
2021/12/22 09:41:31;;;;;;;21.87;19.70;;;1.40;46.60;;;;;;20629;6764;305857;-89
2021/12/22 09:44:05;;;;;;;18.77;16.77;;;1.80;45.60;;;;;;20869;6764;67420;-87
2021/12/22 09:46:52;;;;;;;;;;;;;;;;;;;;;
2021/12/22 09:49:24;;;;;;;21.80;19.67;;;2.10;44.60;;;;;;20556;6805;305756;-87
2021/12/22 09:54:49;;;;;;;22.52;20.12;;;2.50;44.30;;;;;;20588;6758;306562;-87
2021/12/22 09:57:25;;;;;;;18.27;16.40;;;2.60;43.90;;;;;;20824;6758;117453;-87
2021/12/22 10:00:00;;;;;;;21.52;19.60;;;2.60;43.90;;;;;;20611;6811;335117;-87
2021/12/22 10:02:36;;;;;;;18.97;16.97;;;2.70;44.10;;;;;;20797;6820;117243;-87
2021/12/22 10:33:19;;;;;;;16.67;14.97;;;4.20;39.50;;;;;;20547;6659;166481;-86
2021/12/22 10:35:45;;;;;;;16.97;15.27;;;3.80;40.80;;;;;;20727;6820;117688;-86
2021/12/22 10:38:11;;;;;;;18.83;17.12;;;3.70;40.80;;;;;;20441;6865;278423;-86
2021/12/22 10:40:37;;;;;;;15.27;13.87;;;3.70;40.80;;;;;;20660;6865;119495;-88
2021/12/22 10:43:02;;;;;;;15.57;14.05;;;3.70;41.10;;;;;;20585;6865;118078;-86
2021/12/22 10:45:28;;;;;;;18.15;16.65;;;3.50;41.40;;;;;;20460;6865;337927;-88
2021/12/22 10:50:39;;;;;;;17.50;15.75;;;3.60;41.50;;;;;;20454;6865;282133;-88
2021/12/22 10:53:04;;;;;;;17.65;16.10;;;3.80;40.80;;;;;;20435;6865;342401;-86
2021/12/22 10:55:43;;;;;;;18.47;16.77;;;4.30;40.30;;;;;;20453;6865;342518;-85
2021/12/22 10:58:16;;;;;;;18.17;16.57;;;4.60;39.30;;;;;;20457;6865;281863;-86
2021/12/22 11:00:41;;;;;;;17.67;16.15;;;4.50;39.20;;;;;;20438;6865;306774;-85
2021/12/22 11:03:07;;;;;;;14.18;12.77;;;4.70;39.20;;;;;;20657;6865;121666;-86
2021/12/22 11:05:43;;;;;;;16.13;14.80;;;4.70;39.60;;;;;;20449;6865;306784;-86
2021/12/22 11:08:22;;;;;;;14.93;13.47;;;4.70;38.70;;;;;;20676;6865;118739;-86
2021/12/22 11:10:49;;;;;;;17.00;15.60;;;4.50;38.80;;;;;;20523;6865;308722;-87
2021/12/22 11:13:13;;;;;;;15.13;13.63;;;4.50;38.80;;;;;;20653;6865;118070;-88
2021/12/22 11:15:42;;;;;;;14.38;13.00;;;4.50;39.50;;;;;;20663;6865;118535;-84
2021/12/22 11:18:08;;;;;;;17.48;15.93;;;4.30;39.90;;;;;;20458;6865;340726;-86
2021/12/22 11:20:33;;;;;;;17.65;16.17;;;4.30;39.80;;;;;;20383;6865;312750;-85
2021/12/22 11:23:08;;;;;;;18.23;16.42;;;4.60;39.80;;;;;;20392;6865;325735;-86
2021/12/22 11:25:28;;;;;;;17.02;15.45;;;4.80;38.40;;;;;;20428;6865;342421;-88
2021/12/22 11:27:53;;;;;;;15.57;14.03;;;5.00;37.50;;;;;;20655;6865;118516;-86
2021/12/22 11:30:19;;;;;;;17.40;15.90;;;4.80;37.80;;;;;;20463;6865;325176;-88
2021/12/22 11:32:44;;;;;;;15.65;14.05;;;4.80;38.50;;;;;;20671;6865;117557;-87
2021/12/22 11:35:11;;;;;;;14.10;12.80;;;4.40;39.70;;;;;;20654;6863;117864;-86
2021/12/22 11:37:36;;;;;;;18.23;16.53;;;4.40;39.50;;;;;;20466;6862;278877;-89
2021/12/22 11:40:03;;;;;;;18.48;16.77;;;4.50;39.60;;;;;;20458;6862;342481;-88
2021/12/22 11:42:32;;;;;;;16.07;14.47;;;4.70;38.80;;;;;;20678;6861;121421;-88
2021/12/22 11:44:59;;;;;;;18.00;16.30;;;4.60;38.90;;;;;;20442;6862;308776;-87
2021/12/22 11:47:25;;;;;;;15.20;13.70;;;4.60;38.80;;;;;;20674;6862;118115;-88
2021/12/22 11:49:50;;;;;;;15.43;13.95;;;4.50;39.00;;;;;;20690;6862;121914;-87
2021/12/22 11:52:29;;;;;;;14.80;13.30;;;4.30;39.60;;;;;;20682;6862;117638;-89
2021/12/22 11:55:27;;;;;;;18.33;16.63;;;4.10;40.20;;;;;;20460;6862;279172;-86
2021/12/22 11:57:53;;;;;;;18.35;16.75;;;4.20;39.90;;;;;;18683;7504;333905;-86
2021/12/22 12:00:21;;;;;;;15.40;13.90;;;4.50;39.20;;;;;;19785;6878;119799;-87
2021/12/22 12:02:47;;;;;;;18.60;16.83;;;4.40;39.40;;;;;;20459;6848;284350;-86
2021/12/22 12:05:13;;;;;;;19.77;17.75;;;4.50;39.60;;;;;;20437;6862;331679;-86
2021/12/22 12:07:53;;;;;;;19.13;17.27;;;4.70;39.20;;;;;;20392;6862;338011;-87
2021/12/22 12:10:34;;;;;;;16.97;15.30;;;4.80;38.80;;;;;;20577;6892;116754;-86
2021/12/22 12:13:09;;;;;;;18.65;17.05;;;4.70;39.10;;;;;;20356;6895;302261;-85
2021/12/22 12:21:37;;;;;;;18.85;17.15;;;4.70;39.00;;;;;;20370;6895;325880;-87
2021/12/22 12:21:52;;;;;;;18.55;16.85;;;4.70;39.00;;;;;;20481;6862;307893;-84
2021/12/22 12:24:30;;;;;;;17.57;15.67;;;4.70;39.00;;;;;;20657;6877;117713;-89
2021/12/22 12:26:59;;;;;;;14.83;13.33;;;4.70;39.50;;;;;;20663;6877;118389;-89
2021/12/22 12:29:57;;;;;;;18.92;17.23;;;4.40;39.90;;;;;;20433;6877;338966;-85
2021/12/22 12:32:39;;;;;;;18.45;16.75;;;4.40;40.00;;;;;;20419;6877;309327;-87
2021/12/22 12:35:19;;;;;;;18.83;17.20;;;4.90;38.70;;;;;;20412;6877;309286;-83
2021/12/22 12:38:17;;;;;;;18.20;16.50;;;4.90;38.70;;;;;;20426;6877;308071;-88
2021/12/22 12:44:24;;;;;;;;;;;;;;;;;;;;;
2021/12/22 12:46:50;;;;;;;18.30;16.70;;;4.90;38.80;;;;;;20589;6785;305950;-96
2021/12/22 12:52:30;;;;;;;16.00;14.40;;;5.00;38.60;;;;;;21644;6586;240018;31
2021/12/22 13:19:15;;;;;;;19.00;17.17;;;3.20;42.80;;;;;;20489;6602;310742;-83
2021/12/22 13:21:41;;;;;;;17.70;15.90;;;3.30;42.40;;;;;;20914;6755;116806;-86
2021/12/22 13:24:07;;;;;;;17.13;14.80;;;3.50;42.30;;;;;;21007;6755;122648;-85
2021/12/22 13:26:32;;;;;;;19.40;17.60;;;3.40;42.20;;;;;;20571;6819;307551;-86
2021/12/22 13:28:59;;;;;;;17.25;15.52;;;3.80;41.80;;;;;;20787;6822;117291;-87
2021/12/22 13:31:24;;;;;;;16.73;15.03;;;3.80;41.80;;;;;;20775;6827;117762;-87
2021/12/22 13:34:02;;;;;;;17.77;15.27;;;3.70;41.80;;;;;;20815;6812;117120;-87
2021/12/22 13:36:18;;;;;;;19.60;17.70;;;3.60;42.10;;;;;;20542;6825;307041;-88
2021/12/22 13:38:44;;;;;;;16.63;14.87;;;3.80;41.60;;;;;;20750;6828;117321;-86
2021/12/22 13:41:12;;;;;;;18.93;17.23;;;3.80;41.50;;;;;;20619;6818;310968;-87
2021/12/22 13:43:38;;;;;;;17.77;15.87;;;3.90;40.90;;;;;;20878;6818;67221;-88
2021/12/22 13:46:07;;;;;;;17.37;15.57;;;3.90;41.30;;;;;;20830;6818;68507;-86
2021/12/22 13:48:32;;;;;;;16.57;14.77;;;3.80;41.20;;;;;;20831;6818;73128;-87
2021/12/22 13:50:59;;;;;;;19.70;17.80;;;3.80;41.50;;;;;;20622;6818;282307;-86
2021/12/22 13:53:25;;;;;;;22.20;19.95;;;4.10;40.90;;;;;;20603;6818;336151;-86
2021/12/22 13:55:50;;;;;;;17.70;15.67;;;4.10;40.90;;;;;;20832;6818;68224;-85
2021/12/22 13:58:36;;;;;;;19.17;17.37;;;4.20;40.40;;;;;;20625;6818;277973;-86
2021/12/22 14:01:15;;;;;;;17.27;15.47;;;4.20;40.40;;;;;;20833;6818;71878;-87
2021/12/22 14:03:41;;;;;;;19.90;18.03;;;4.10;40.50;;;;;;20613;6818;307492;-86
2021/12/22 15:45:49;;;;;;;23.43;21.13;;;4.50;39.70;;;;;;21350;6547;274323;-83
2021/12/22 15:48:16;;;;;;;25.47;23.00;;;4.40;39.40;;;;;;21223;6645;271675;-83
2021/12/22 15:50:40;;;;;;;25.80;23.35;;;4.40;39.30;;;;;;21236;6629;274325;-83
2021/12/22 15:53:05;;;;;;;25.13;22.70;;;4.40;39.40;;;;;;21221;6629;271076;-83
2021/12/22 15:55:31;;;;;;;23.80;21.47;;;4.40;39.60;;;;;;21220;6629;300901;-86
2021/12/22 15:57:56;;;;;;;22.00;19.73;;;4.30;40.00;;;;;;21432;6629;66696;-85
2021/12/22 16:00:27;;;;;;;20.30;18.12;;;4.00;40.20;;;;;;21465;6629;88406;-86
2021/12/22 16:02:51;;;;;;;20.20;17.80;;;3.50;40.70;;;;;;21475;6629;72466;-87
2021/12/22 16:05:16;;;;;;;18.83;16.63;;;3.10;41.30;;;;;;21313;6629;116957;-86
2021/12/22 16:07:42;;;;;;;21.98;17.25;;;2.80;41.70;;;;;;20751;6837;117846;-87
2021/12/22 16:10:08;;;;;;;24.65;22.05;;;2.50;42.20;;;;;;20547;6835;283227;-86
2021/12/22 16:12:34;;;;;;;23.77;21.37;;;2.80;43.10;;;;;;20525;6840;278343;-86
2021/12/22 16:15:00;;;;;;;22.20;18.50;;;2.70;43.00;;;;;;20659;6835;119700;-86
2021/12/22 16:17:26;;;;;;;19.93;17.90;;;2.40;43.00;;;;;;20701;6854;117591;-85
2021/12/22 16:19:53;;;;;;;28.20;21.83;;;2.40;43.00;;;;;;20733;6869;116989;-86
2021/12/22 16:22:17;;;;;;;20.65;17.83;;;2.20;43.30;;;;;;20631;6869;117565;-86
2021/12/22 16:24:43;;;;;;;21.83;18.77;;;2.00;43.60;;;;;;20665;6869;68816;-86
2021/12/22 16:27:08;;;;;;;25.77;23.07;;;1.80;43.80;;;;;;20466;6869;309652;-86
2021/12/22 16:29:34;;;;;;;24.60;21.20;;;1.90;44.10;;;;;;20670;6869;68619;-84
2021/12/22 16:31:59;;;;;;;27.10;24.20;;;2.00;43.90;;;;;;20469;6868;279410;-85
2021/12/22 16:34:25;;;;;;;45.80;40.50;;;2.10;44.00;;;;;;20463;6868;336891;-81
2021/12/22 16:36:50;;;;;;;47.87;35.07;;;2.30;43.70;;;;;;20676;6868;67969;-85
2021/12/22 16:39:19;;;;;;;36.92;33.08;;;2.30;43.50;;;;;;20473;6868;279618;-85
2021/12/22 16:41:42;;;;;;;26.83;23.73;;;2.30;43.50;;;;;;20669;6868;68106;-83
2021/12/22 16:44:08;;;;;;;59.38;40.42;;;1.90;43.60;;;;;;20706;6868;67577;-84
2021/12/22 16:46:33;;;;;;;32.00;25.83;;;1.90;43.60;;;;;;20708;6868;67974;-83
2021/12/22 16:48:59;;;;;;;28.50;22.10;;;1.70;43.90;;;;;;20720;6868;67557;-83
2021/12/22 16:51:25;;;;;;;32.10;28.30;;;1.50;44.20;;;;;;20501;6868;345687;-83
2021/12/22 16:53:50;;;;;;;30.07;26.87;;;1.60;44.60;;;;;;20492;6868;338255;-85
2021/12/22 16:56:17;;;;;;;25.57;21.47;;;1.90;44.30;;;;;;20637;6866;67486;-86